首页
METAR-TAF:

METAR-TAF

机场 :

查尔斯顿, 南卡罗来纳州, 美国

纬度: 32-53-56N, 经度: 080-02-26W, 海拔: 14米

当前天气观测

该预报发布于57分钟前的08:56 UTC
风速5节,风向西转西南
温度 25°C
湿度 89%
气压 1019 hPa
能見度: 16.1公里
少量云层高于7500英尺

METAR: KCHS 260856Z 24005KT 10SM FEW075 25/23 A3009 RMK AO2 SLP189 T02500228 55000

时间: 05:53 (09:53 UTC)

预报

该预报发布于4小时和18分钟前的05:35 UTC
预报有效从26日的 06点(UTC)到 27日的 06点(UTC)
风速3节,风向南转西南
能見度: 10公里
天空无云
从 26日的 1500点(UTC)
风速7节,风向西
能見度: 10公里
散云层高于7000英尺
从 26日的 2100点(UTC)
风速10节,风向西南
能見度: 10公里
少量云层高于7000英尺
从 27日的 0200点(UTC)
风速5节,风向西南
能見度: 10公里
天空无云

TAF: KCHS 260535Z 2606/2706 20003KT P6SM SKC FM261500 27007KT P6SM SCT070 FM262100 22010KT P6SM FEW070 FM270200 22005KT P6SM SKC

超过4000个机场的气象观测和天气预报(METAR&TAF报告)。

可查询的气象台以黄色和红色小点在地图上表示。

将鼠标移到小点上方,可查看气象台名称。

然后点击查看天气观测和预报。

如需切换地图:点击带黑十字的绿色按钮放大地图;点击带横线的绿色按钮缩小地图;或者点击绿色箭头查看邻近地区的地图。


METAR-TAF: